Everglades City, FL

11:14 AM EDT on September 02, 2014 (GMT -0400)
Marco Island | Change Station
CLOSE
Current Station
Airport
Location: Marco Island Airport,
Elevation: 3 ft
Nearby Weather Stations

Elev 3 ft 26.00 °N, 81.67 °W | Updated 19 minutes ago

Partly Cloudy
Partly Cloudy
88 °F
Feels Like 98 °F
N
8
Wind Variable Wind from East

Today
High -- | Low -- °F
--% Chance of Precip.
Yesterday
High -- | Low -- °F
Precip. -- in
7:06 AM 7:43 PM
First Quarter, 52% visible
Pressure 30.07 in
Visibility 10.0 miles
Clouds Few 2800 ft
Heat Index 98 °F
Dew Point 75 °F
Humidity 66%
Rainfall 0.00 in
Snow Depth Not available.
UV 9 out of 12
Pollen 4.20 out of 12
Air Quality Not available.
Flu Activity Not available.
METAR KMKY 021455Z AUTO 10007KT 10SM FEW028 31/24 A3007 RMK AO1 52010

More Conditions Fewer Conditions

Pressure 30.07 in
Visibility 10.0 miles
Clouds Few 2800 ft
Heat Index 98 °F
Dew Point 75 °F
Humidity 66%
Rainfall 0.00 in
Snow Depth Not available.
UV 9 out of 12
Pollen 4.20 out of 12
Air Quality Not available.
Flu Activity Not available.
METAR KMKY 021455Z AUTO 10007KT 10SM FEW028 31/24 A3007 RMK AO1 52010

More Conditions Fewer Conditions

10-Day Weather Forecast

Almanac

Astronomy

Sep. 02, 2014 Rise Set
Actual Time 7:06 AM EDT 7:43 PM EDT
Civil Twilight 6:42 AM EDT 8:07 PM EDT
Nautical Twilight 6:15 AM EDT 8:34 PM EDT
Astronomical Twilight 5:47 AM EDT 9:02 PM EDT
Moon 2:08 PM EDT 12:24 AM EDT
Length of Visible Light 13h 24m
Length of Day
12h 37m
Tomorrow will be 1m 27s shorter.
First Quarter, 52% of the Moon is Illuminated
Today
First Quarter
Sep 8
Full
Sep 15
Last Quarter
Sep 24
New
Oct 1
First Quarter

Today's Extremes

State Highs State Lows

Community

WunderPhotos

Upload Photos

1,749,690 photos uploaded!

WunderBlogs® & News

Nearby

Snow Depth

Station Depth Elevation
No new snow has been reported.

Earthquake Activity

City Distance Mag. Time & Date
No recent earthquake activity has been reported nearby.
Minimum magnitude displayed is 2.5.

Coastal Water Temperatures

Place Temperature
No Stations Reporting

Nearby Weather Stations